sensor_id;sensor_type;location;lat;lon;timestamp;P1;durP1;ratioP1;P2;durP2;ratioP2
71973;SDS011;59840;52.122;5.404;2023-10-09T00:00:57;26.90;;;12.65;;
71973;SDS011;59840;52.122;5.404;2023-10-09T00:03:31;27.58;;;12.55;;
71973;SDS011;59840;52.122;5.404;2023-10-09T00:05:59;25.13;;;12.50;;
71973;SDS011;59840;52.122;5.404;2023-10-09T00:08:27;31.35;;;12.82;;
71973;SDS011;59840;52.122;5.404;2023-10-09T00:10:57;29.75;;;12.60;;
71973;SDS011;59840;52.122;5.404;2023-10-09T00:13:26;28.42;;;13.27;;
71973;SDS011;59840;52.122;5.404;2023-10-09T00:16:05;24.17;;;12.40;;
71973;SDS011;59840;52.122;5.404;2023-10-09T00:18:41;31.43;;;13.30;;
71973;SDS011;59840;52.122;5.404;2023-10-09T00:21:18;27.15;;;12.02;;
71973;SDS011;59840;52.122;5.404;2023-10-09T00:23:49;28.60;;;12.98;;
71973;SDS011;59840;52.122;5.404;2023-10-09T00:26:25;20.98;;;12.02;;
71973;SDS011;59840;52.122;5.404;2023-10-09T00:28:52;28.90;;;12.48;;
71973;SDS011;59840;52.122;5.404;2023-10-09T00:31:19;28.93;;;12.23;;
71973;SDS011;59840;52.122;5.404;2023-10-09T00:33:54;27.67;;;13.13;;
71973;SDS011;59840;52.122;5.404;2023-10-09T00:36:21;28.80;;;12.43;;
71973;SDS011;59840;52.122;5.404;2023-10-09T00:38:54;26.92;;;11.88;;
71973;SDS011;59840;52.122;5.404;2023-10-09T00:41:21;24.10;;;12.05;;
71973;SDS011;59840;52.122;5.404;2023-10-09T00:43:51;24.67;;;12.40;;
71973;SDS011;59840;52.122;5.404;2023-10-09T00:46:20;27.65;;;12.93;;
71973;SDS011;59840;52.122;5.404;2023-10-09T00:48:48;27.55;;;11.88;;
71973;SDS011;59840;52.122;5.404;2023-10-09T00:51:16;27.02;;;12.55;;
71973;SDS011;59840;52.122;5.404;2023-10-09T00:53:48;26.38;;;12.77;;
71973;SDS011;59840;52.122;5.404;2023-10-09T00:56:19;23.83;;;12.37;;
71973;SDS011;59840;52.122;5.404;2023-10-09T00:59:04;24.50;;;11.93;;
71973;SDS011;59840;52.122;5.404;2023-10-09T01:01:35;22.30;;;11.63;;
71973;SDS011;59840;52.122;5.404;2023-10-09T01:04:16;27.00;;;12.07;;
71973;SDS011;59840;52.122;5.404;2023-10-09T01:06:46;24.17;;;12.25;;
71973;SDS011;59840;52.122;5.404;2023-10-09T01:09:30;26.07;;;11.83;;
71973;SDS011;59840;52.122;5.404;2023-10-09T01:12:04;23.48;;;12.10;;
71973;SDS011;59840;52.122;5.404;2023-10-09T01:14:31;24.42;;;12.00;;
71973;SDS011;59840;52.122;5.404;2023-10-09T01:17:03;23.27;;;12.48;;
71973;SDS011;59840;52.122;5.404;2023-10-09T01:19:35;26.95;;;12.23;;
71973;SDS011;59840;52.122;5.404;2023-10-09T01:22:02;24.33;;;11.40;;
71973;SDS011;59840;52.122;5.404;2023-10-09T01:24:42;22.25;;;12.00;;
71973;SDS011;59840;52.122;5.404;2023-10-09T01:27:10;22.15;;;11.25;;
71973;SDS011;59840;52.122;5.404;2023-10-09T01:29:43;22.77;;;12.02;;
71973;SDS011;59840;52.122;5.404;2023-10-09T01:32:10;27.00;;;12.20;;
71973;SDS011;59840;52.122;5.404;2023-10-09T01:34:43;23.23;;;11.60;;
71973;SDS011;59840;52.122;5.404;2023-10-09T01:37:18;22.27;;;12.02;;
71973;SDS011;59840;52.122;5.404;2023-10-09T01:39:49;23.63;;;12.32;;
71973;SDS011;59840;52.122;5.404;2023-10-09T01:42:20;21.05;;;10.98;;
71973;SDS011;59840;52.122;5.404;2023-10-09T01:45:10;24.38;;;11.07;;
71973;SDS011;59840;52.122;5.404;2023-10-09T01:47:38;26.43;;;12.10;;
71973;SDS011;59840;52.122;5.404;2023-10-09T01:50:05;25.65;;;11.55;;
71973;SDS011;59840;52.122;5.404;2023-10-09T01:52:38;22.52;;;12.45;;
71973;SDS011;59840;52.122;5.404;2023-10-09T01:55:05;26.08;;;12.00;;
71973;SDS011;59840;52.122;5.404;2023-10-09T01:57:34;22.58;;;11.68;;
71973;SDS011;59840;52.122;5.404;2023-10-09T02:00:01;21.00;;;11.20;;
71973;SDS011;59840;52.122;5.404;2023-10-09T02:02:29;23.90;;;12.23;;
71973;SDS011;59840;52.122;5.404;2023-10-09T02:07:37;27.05;;;12.38;;
71973;SDS011;59840;52.122;5.404;2023-10-09T02:10:11;18.98;;;10.90;;
71973;SDS011;59840;52.122;5.404;2023-10-09T02:13:00;19.00;;;10.97;;
71973;SDS011;59840;52.122;5.404;2023-10-09T02:15:34;20.35;;;11.48;;
71973;SDS011;59840;52.122;5.404;2023-10-09T02:18:08;23.23;;;11.40;;
71973;SDS011;59840;52.122;5.404;2023-10-09T02:23:33;22.40;;;11.05;;
71973;SDS011;59840;52.122;5.404;2023-10-09T02:26:16;23.67;;;12.03;;
71973;SDS011;59840;52.122;5.404;2023-10-09T02:29:03;20.88;;;11.40;;
71973;SDS011;59840;52.122;5.404;2023-10-09T02:31:39;21.23;;;11.25;;
71973;SDS011;59840;52.122;5.404;2023-10-09T02:34:12;25.05;;;11.90;;
71973;SDS011;59840;52.122;5.404;2023-10-09T02:36:42;21.27;;;12.18;;
71973;SDS011;59840;52.122;5.404;2023-10-09T02:39:10;21.20;;;11.33;;
71973;SDS011;59840;52.122;5.404;2023-10-09T02:41:56;20.48;;;11.55;;
71973;SDS011;59840;52.122;5.404;2023-10-09T02:44:45;21.58;;;11.60;;
71973;SDS011;59840;52.122;5.404;2023-10-09T02:47:13;22.95;;;11.50;;
71973;SDS011;59840;52.122;5.404;2023-10-09T02:49:47;24.77;;;11.35;;
71973;SDS011;59840;52.122;5.404;2023-10-09T02:52:17;19.33;;;10.80;;
71973;SDS011;59840;52.122;5.404;2023-10-09T02:54:51;23.95;;;11.13;;
71973;SDS011;59840;52.122;5.404;2023-10-09T02:57:26;19.83;;;11.23;;
71973;SDS011;59840;52.122;5.404;2023-10-09T03:00:05;19.60;;;10.82;;
71973;SDS011;59840;52.122;5.404;2023-10-09T03:02:36;18.60;;;10.25;;
71973;SDS011;59840;52.122;5.404;2023-10-09T03:05:07;20.23;;;10.57;;
71973;SDS011;59840;52.122;5.404;2023-10-09T03:07:38;19.30;;;11.15;;
71973;SDS011;59840;52.122;5.404;2023-10-09T03:10:08;18.20;;;9.80;;
71973;SDS011;59840;52.122;5.404;2023-10-09T03:12:36;18.35;;;10.20;;
71973;SDS011;59840;52.122;5.404;2023-10-09T03:15:05;16.63;;;9.75;;
71973;SDS011;59840;52.122;5.404;2023-10-09T03:17:34;17.50;;;10.00;;
71973;SDS011;59840;52.122;5.404;2023-10-09T03:20:05;19.98;;;10.38;;
71973;SDS011;59840;52.122;5.404;2023-10-09T03:22:44;19.92;;;10.52;;
71973;SDS011;59840;52.122;5.404;2023-10-09T03:25:11;16.40;;;9.77;;
71973;SDS011;59840;52.122;5.404;2023-10-09T03:27:40;17.13;;;9.85;;
71973;SDS011;59840;52.122;5.404;2023-10-09T03:30:13;17.13;;;9.43;;
71973;SDS011;59840;52.122;5.404;2023-10-09T03:32:49;16.15;;;9.75;;
71973;SDS011;59840;52.122;5.404;2023-10-09T03:35:21;16.42;;;9.27;;
71973;SDS011;59840;52.122;5.404;2023-10-09T03:37:56;16.13;;;8.68;;
71973;SDS011;59840;52.122;5.404;2023-10-09T03:40:23;19.83;;;9.68;;
71973;SDS011;59840;52.122;5.404;2023-10-09T03:42:54;17.43;;;8.07;;
71973;SDS011;59840;52.122;5.404;2023-10-09T03:45:20;14.75;;;8.55;;
71973;SDS011;59840;52.122;5.404;2023-10-09T03:47:54;15.35;;;8.30;;
71973;SDS011;59840;52.122;5.404;2023-10-09T03:50:28;12.40;;;7.57;;
71973;SDS011;59840;52.122;5.404;2023-10-09T03:53:03;12.07;;;6.93;;
71973;SDS011;59840;52.122;5.404;2023-10-09T03:55:34;13.70;;;7.80;;
71973;SDS011;59840;52.122;5.404;2023-10-09T03:58:04;14.20;;;8.05;;
71973;SDS011;59840;52.122;5.404;2023-10-09T04:00:31;12.38;;;7.85;;
71973;SDS011;59840;52.122;5.404;2023-10-09T04:02:58;15.68;;;8.30;;
71973;SDS011;59840;52.122;5.404;2023-10-09T04:05:25;14.43;;;7.78;;
71973;SDS011;59840;52.122;5.404;2023-10-09T04:07:53;14.10;;;8.50;;
71973;SDS011;59840;52.122;5.404;2023-10-09T04:10:21;16.30;;;8.20;;
71973;SDS011;59840;52.122;5.404;2023-10-09T04:13:10;14.05;;;7.53;;
71973;SDS011;59840;52.122;5.404;2023-10-09T04:15:43;13.18;;;7.10;;
71973;SDS011;59840;52.122;5.404;2023-10-09T04:18:10;12.32;;;7.63;;
71973;SDS011;59840;52.122;5.404;2023-10-09T04:20:41;13.87;;;7.67;;
71973;SDS011;59840;52.122;5.404;2023-10-09T04:23:11;12.65;;;7.35;;
71973;SDS011;59840;52.122;5.404;2023-10-09T04:25:42;13.57;;;6.97;;
71973;SDS011;59840;52.122;5.404;2023-10-09T04:28:11;13.32;;;7.32;;
71973;SDS011;59840;52.122;5.404;2023-10-09T04:30:48;10.50;;;6.70;;
71973;SDS011;59840;52.122;5.404;2023-10-09T04:33:22;13.77;;;6.80;;
71973;SDS011;59840;52.122;5.404;2023-10-09T04:36:09;12.35;;;6.38;;
71973;SDS011;59840;52.122;5.404;2023-10-09T04:38:56;13.68;;;7.10;;
71973;SDS011;59840;52.122;5.404;2023-10-09T04:41:29;8.88;;;6.63;;
71973;SDS011;59840;52.122;5.404;2023-10-09T04:44:00;12.45;;;6.68;;
71973;SDS011;59840;52.122;5.404;2023-10-09T04:46:46;10.80;;;6.27;;
71973;SDS011;59840;52.122;5.404;2023-10-09T04:49:34;11.65;;;6.38;;
71973;SDS011;59840;52.122;5.404;2023-10-09T04:52:18;10.70;;;5.88;;
71973;SDS011;59840;52.122;5.404;2023-10-09T04:54:51;11.32;;;6.10;;
71973;SDS011;59840;52.122;5.404;2023-10-09T04:57:33;14.10;;;6.28;;
71973;SDS011;59840;52.122;5.404;2023-10-09T05:00:10;12.53;;;6.10;;
71973;SDS011;59840;52.122;5.404;2023-10-09T05:02:55;11.82;;;5.85;;
71973;SDS011;59840;52.122;5.404;2023-10-09T05:05:23;9.13;;;5.72;;
71973;SDS011;59840;52.122;5.404;2023-10-09T05:08:15;11.68;;;6.28;;
71973;SDS011;59840;52.122;5.404;2023-10-09T05:11:01;10.73;;;5.85;;
71973;SDS011;59840;52.122;5.404;2023-10-09T05:13:29;9.13;;;5.33;;
71973;SDS011;59840;52.122;5.404;2023-10-09T05:16:09;9.88;;;5.88;;
71973;SDS011;59840;52.122;5.404;2023-10-09T05:18:42;11.98;;;6.07;;
71973;SDS011;59840;52.122;5.404;2023-10-09T05:21:11;11.95;;;6.03;;
71973;SDS011;59840;52.122;5.404;2023-10-09T05:23:57;10.95;;;5.90;;
71973;SDS011;59840;52.122;5.404;2023-10-09T05:26:48;8.43;;;5.40;;
71973;SDS011;59840;52.122;5.404;2023-10-09T05:32:09;11.57;;;5.45;;
71973;SDS011;59840;52.122;5.404;2023-10-09T05:34:38;12.50;;;5.50;;
71973;SDS011;59840;52.122;5.404;2023-10-09T05:37:28;8.57;;;5.22;;
71973;SDS011;59840;52.122;5.404;2023-10-09T05:42:27;8.57;;;4.93;;
71973;SDS011;59840;52.122;5.404;2023-10-09T05:47:43;9.93;;;4.55;;
71973;SDS011;59840;52.122;5.404;2023-10-09T05:50:51;7.07;;;4.65;;
71973;SDS011;59840;52.122;5.404;2023-10-09T05:53:36;10.63;;;4.70;;
71973;SDS011;59840;52.122;5.404;2023-10-09T05:56:12;10.55;;;4.35;;
71973;SDS011;59840;52.122;5.404;2023-10-09T05:58:57;10.38;;;4.75;;
71973;SDS011;59840;52.122;5.404;2023-10-09T06:01:43;9.13;;;4.90;;
71973;SDS011;59840;52.122;5.404;2023-10-09T06:04:28;9.38;;;5.03;;
71973;SDS011;59840;52.122;5.404;2023-10-09T06:07:16;9.40;;;4.53;;
71973;SDS011;59840;52.122;5.404;2023-10-09T06:09:49;7.35;;;4.25;;
71973;SDS011;59840;52.122;5.404;2023-10-09T06:12:22;11.82;;;4.68;;
71973;SDS011;59840;52.122;5.404;2023-10-09T06:14:59;8.50;;;4.32;;
71973;SDS011;59840;52.122;5.404;2023-10-09T06:17:46;8.35;;;4.72;;
71973;SDS011;59840;52.122;5.404;2023-10-09T06:20:19;6.67;;;4.70;;
71973;SDS011;59840;52.122;5.404;2023-10-09T06:23:05;5.97;;;3.55;;
71973;SDS011;59840;52.122;5.404;2023-10-09T06:25:50;7.95;;;4.20;;
71973;SDS011;59840;52.122;5.404;2023-10-09T06:28:19;8.63;;;4.30;;
71973;SDS011;59840;52.122;5.404;2023-10-09T06:30:59;11.80;;;4.35;;
71973;SDS011;59840;52.122;5.404;2023-10-09T06:33:45;10.03;;;4.17;;
71973;SDS011;59840;52.122;5.404;2023-10-09T06:36:32;7.45;;;3.75;;
71973;SDS011;59840;52.122;5.404;2023-10-09T06:38:58;8.05;;;4.28;;
71973;SDS011;59840;52.122;5.404;2023-10-09T06:42:00;8.40;;;4.20;;
71973;SDS011;59840;52.122;5.404;2023-10-09T06:44:36;10.23;;;4.30;;
71973;SDS011;59840;52.122;5.404;2023-10-09T06:47:20;8.10;;;4.00;;
71973;SDS011;59840;52.122;5.404;2023-10-09T06:49:50;7.38;;;4.38;;
71973;SDS011;59840;52.122;5.404;2023-10-09T06:52:35;8.48;;;4.13;;
71973;SDS011;59840;52.122;5.404;2023-10-09T06:55:20;8.05;;;4.50;;
71973;SDS011;59840;52.122;5.404;2023-10-09T06:57:59;6.47;;;4.45;;
71973;SDS011;59840;52.122;5.404;2023-10-09T07:00:27;8.50;;;4.70;;
71973;SDS011;59840;52.122;5.404;2023-10-09T07:03:13;7.97;;;4.55;;
71973;SDS011;59840;52.122;5.404;2023-10-09T07:05:40;11.70;;;4.80;;
71973;SDS011;59840;52.122;5.404;2023-10-09T07:08:25;9.13;;;4.75;;
71973;SDS011;59840;52.122;5.404;2023-10-09T07:11:03;9.98;;;4.50;;
71973;SDS011;59840;52.122;5.404;2023-10-09T07:17:02;8.35;;;4.60;;
71973;SDS011;59840;52.122;5.404;2023-10-09T07:19:49;6.07;;;4.43;;
71973;SDS011;59840;52.122;5.404;2023-10-09T07:22:16;10.55;;;5.03;;
71973;SDS011;59840;52.122;5.404;2023-10-09T07:24:49;7.53;;;4.38;;
71973;SDS011;59840;52.122;5.404;2023-10-09T07:27:23;6.63;;;4.23;;
71973;SDS011;59840;52.122;5.404;2023-10-09T07:30:17;6.13;;;4.63;;
71973;SDS011;59840;52.122;5.404;2023-10-09T07:32:57;12.10;;;5.20;;
71973;SDS011;59840;52.122;5.404;2023-10-09T07:35:44;12.05;;;5.00;;
71973;SDS011;59840;52.122;5.404;2023-10-09T07:38:15;8.57;;;4.70;;
71973;SDS011;59840;52.122;5.404;2023-10-09T07:40:47;9.07;;;5.03;;
71973;SDS011;59840;52.122;5.404;2023-10-09T07:43:46;9.95;;;4.90;;
71973;SDS011;59840;52.122;5.404;2023-10-09T07:46:13;6.50;;;4.80;;
71973;SDS011;59840;52.122;5.404;2023-10-09T07:48:57;9.63;;;4.38;;
71973;SDS011;59840;52.122;5.404;2023-10-09T07:51:26;16.17;;;5.05;;
71973;SDS011;59840;52.122;5.404;2023-10-09T07:53:59;10.53;;;6.47;;
71973;SDS011;59840;52.122;5.404;2023-10-09T07:56:38;6.00;;;4.22;;
71973;SDS011;59840;52.122;5.404;2023-10-09T07:59:12;15.85;;;5.30;;
71973;SDS011;59840;52.122;5.404;2023-10-09T08:01:44;9.40;;;4.72;;
71973;SDS011;59840;52.122;5.404;2023-10-09T08:04:40;11.18;;;4.93;;
71973;SDS011;59840;52.122;5.404;2023-10-09T08:07:16;9.10;;;5.00;;
71973;SDS011;59840;52.122;5.404;2023-10-09T08:10:07;7.50;;;4.45;;
71973;SDS011;59840;52.122;5.404;2023-10-09T08:12:43;5.80;;;4.50;;
71973;SDS011;59840;52.122;5.404;2023-10-09T08:15:17;8.52;;;4.40;;
71973;SDS011;59840;52.122;5.404;2023-10-09T08:17:48;9.20;;;5.03;;
71973;SDS011;59840;52.122;5.404;2023-10-09T08:20:23;7.47;;;4.83;;
71973;SDS011;59840;52.122;5.404;2023-10-09T08:22:53;7.32;;;4.90;;
71973;SDS011;59840;52.122;5.404;2023-10-09T08:25:24;9.77;;;4.50;;
71973;SDS011;59840;52.122;5.404;2023-10-09T08:27:55;11.65;;;5.07;;
71973;SDS011;59840;52.122;5.404;2023-10-09T08:30:24;6.72;;;4.85;;
71973;SDS011;59840;52.122;5.404;2023-10-09T08:32:51;8.93;;;5.07;;
71973;SDS011;59840;52.122;5.404;2023-10-09T08:35:33;8.02;;;4.50;;
71973;SDS011;59840;52.122;5.404;2023-10-09T08:38:14;11.05;;;4.78;;
71973;SDS011;59840;52.122;5.404;2023-10-09T08:40:43;9.70;;;4.50;;
71973;SDS011;59840;52.122;5.404;2023-10-09T08:43:16;6.63;;;4.43;;
71973;SDS011;59840;52.122;5.404;2023-10-09T08:48:15;10.23;;;4.50;;
71973;SDS011;59840;52.122;5.404;2023-10-09T08:50:42;9.82;;;5.25;;
71973;SDS011;59840;52.122;5.404;2023-10-09T08:53:10;7.53;;;4.60;;
71973;SDS011;59840;52.122;5.404;2023-10-09T08:55:38;8.82;;;4.50;;
71973;SDS011;59840;52.122;5.404;2023-10-09T08:58:06;6.37;;;3.97;;
71973;SDS011;59840;52.122;5.404;2023-10-09T09:00:44;9.18;;;4.18;;
71973;SDS011;59840;52.122;5.404;2023-10-09T09:03:15;9.45;;;3.85;;
71973;SDS011;59840;52.122;5.404;2023-10-09T09:05:46;7.88;;;4.47;;
71973;SDS011;59840;52.122;5.404;2023-10-09T09:08:22;9.18;;;4.03;;
71973;SDS011;59840;52.122;5.404;2023-10-09T09:10:56;9.33;;;4.23;;
71973;SDS011;59840;52.122;5.404;2023-10-09T09:16:33;6.82;;;4.00;;
71973;SDS011;59840;52.122;5.404;2023-10-09T09:19:05;12.05;;;4.65;;
71973;SDS011;59840;52.122;5.404;2023-10-09T09:21:42;9.70;;;4.45;;
71973;SDS011;59840;52.122;5.404;2023-10-09T09:24:16;8.10;;;4.37;;
71973;SDS011;59840;52.122;5.404;2023-10-09T09:26:54;6.32;;;4.15;;
71973;SDS011;59840;52.122;5.404;2023-10-09T09:29:44;7.03;;;3.90;;
71973;SDS011;59840;52.122;5.404;2023-10-09T09:32:28;5.07;;;3.90;;
71973;SDS011;59840;52.122;5.404;2023-10-09T09:35:03;6.80;;;3.80;;
71973;SDS011;59840;52.122;5.404;2023-10-09T09:37:33;6.90;;;3.53;;
71973;SDS011;59840;52.122;5.404;2023-10-09T09:40:09;7.13;;;3.65;;
71973;SDS011;59840;52.122;5.404;2023-10-09T09:42:44;6.25;;;3.63;;
71973;SDS011;59840;52.122;5.404;2023-10-09T09:45:14;7.90;;;3.75;;
71973;SDS011;59840;52.122;5.404;2023-10-09T09:47:43;8.68;;;4.03;;
71973;SDS011;59840;52.122;5.404;2023-10-09T09:50:18;9.67;;;3.73;;
71973;SDS011;59840;52.122;5.404;2023-10-09T09:52:53;8.80;;;4.50;;
71973;SDS011;59840;52.122;5.404;2023-10-09T09:55:20;9.30;;;3.65;;
71973;SDS011;59840;52.122;5.404;2023-10-09T09:57:49;8.20;;;3.50;;
71973;SDS011;59840;52.122;5.404;2023-10-09T10:00:22;13.93;;;3.90;;
71973;SDS011;59840;52.122;5.404;2023-10-09T10:03:09;5.23;;;3.50;;
71973;SDS011;59840;52.122;5.404;2023-10-09T10:05:41;8.48;;;3.53;;
71973;SDS011;59840;52.122;5.404;2023-10-09T10:08:09;11.38;;;4.55;;
71973;SDS011;59840;52.122;5.404;2023-10-09T10:10:40;8.98;;;3.95;;
71973;SDS011;59840;52.122;5.404;2023-10-09T10:16:14;8.00;;;3.30;;
71973;SDS011;59840;52.122;5.404;2023-10-09T10:18:54;11.00;;;3.55;;
71973;SDS011;59840;52.122;5.404;2023-10-09T10:21:37;6.43;;;3.75;;
71973;SDS011;59840;52.122;5.404;2023-10-09T10:29:36;5.97;;;3.33;;
71973;SDS011;59840;52.122;5.404;2023-10-09T10:32:04;7.18;;;3.35;;
71973;SDS011;59840;52.122;5.404;2023-10-09T10:34:51;7.07;;;3.08;;
71973;SDS011;59840;52.122;5.404;2023-10-09T10:40:23;5.57;;;3.40;;
71973;SDS011;59840;52.122;5.404;2023-10-09T10:43:16;10.40;;;3.17;;
71973;SDS011;59840;52.122;5.404;2023-10-09T10:46:06;7.70;;;3.38;;
71973;SDS011;59840;52.122;5.404;2023-10-09T10:48:40;6.78;;;3.28;;
71973;SDS011;59840;52.122;5.404;2023-10-09T10:51:13;8.38;;;3.55;;
71973;SDS011;59840;52.122;5.404;2023-10-09T10:53:58;8.15;;;3.70;;
71973;SDS011;59840;52.122;5.404;2023-10-09T10:56:25;5.60;;;3.33;;
71973;SDS011;59840;52.122;5.404;2023-10-09T10:59:02;7.05;;;3.22;;
71973;SDS011;59840;52.122;5.404;2023-10-09T11:01:32;8.18;;;3.60;;
71973;SDS011;59840;52.122;5.404;2023-10-09T11:04:19;7.47;;;3.00;;
71973;SDS011;59840;52.122;5.404;2023-10-09T11:06:57;5.68;;;3.05;;
71973;SDS011;59840;52.122;5.404;2023-10-09T11:09:46;6.40;;;3.33;;
71973;SDS011;59840;52.122;5.404;2023-10-09T11:12:41;7.38;;;3.10;;
71973;SDS011;59840;52.122;5.404;2023-10-09T11:15:33;5.70;;;3.30;;
71973;SDS011;59840;52.122;5.404;2023-10-09T11:18:14;8.38;;;3.50;;
71973;SDS011;59840;52.122;5.404;2023-10-09T11:20:44;7.50;;;3.00;;
71973;SDS011;59840;52.122;5.404;2023-10-09T11:23:30;6.43;;;2.80;;
71973;SDS011;59840;52.122;5.404;2023-10-09T11:26:00;6.50;;;3.03;;
71973;SDS011;59840;52.122;5.404;2023-10-09T11:28:46;5.82;;;3.03;;
71973;SDS011;59840;52.122;5.404;2023-10-09T11:31:42;5.22;;;2.92;;
71973;SDS011;59840;52.122;5.404;2023-10-09T11:34:24;7.13;;;3.05;;
71973;SDS011;59840;52.122;5.404;2023-10-09T11:36:58;6.77;;;3.20;;
71973;SDS011;59840;52.122;5.404;2023-10-09T11:39:30;26.58;;;4.75;;
71973;SDS011;59840;52.122;5.404;2023-10-09T11:42:01;7.97;;;2.75;;
71973;SDS011;59840;52.122;5.404;2023-10-09T11:44:38;8.70;;;3.40;;
71973;SDS011;59840;52.122;5.404;2023-10-09T11:47:12;4.88;;;2.95;;
71973;SDS011;59840;52.122;5.404;2023-10-09T11:49:51;6.67;;;3.23;;
71973;SDS011;59840;52.122;5.404;2023-10-09T11:52:55;13.90;;;3.63;;
71973;SDS011;59840;52.122;5.404;2023-10-09T11:55:35;7.30;;;3.60;;
71973;SDS011;59840;52.122;5.404;2023-10-09T11:58:03;6.78;;;3.78;;
71973;SDS011;59840;52.122;5.404;2023-10-09T12:00:31;7.68;;;3.22;;
71973;SDS011;59840;52.122;5.404;2023-10-09T12:03:11;5.90;;;3.47;;
71973;SDS011;59840;52.122;5.404;2023-10-09T12:05:39;5.13;;;3.10;;
71973;SDS011;59840;52.122;5.404;2023-10-09T12:08:10;6.72;;;3.30;;
71973;SDS011;59840;52.122;5.404;2023-10-09T12:10:40;9.32;;;3.20;;
71973;SDS011;59840;52.122;5.404;2023-10-09T12:13:07;6.32;;;3.50;;
71973;SDS011;59840;52.122;5.404;2023-10-09T12:15:34;6.57;;;3.00;;
71973;SDS011;59840;52.122;5.404;2023-10-09T12:18:04;7.60;;;2.53;;
71973;SDS011;59840;52.122;5.404;2023-10-09T12:20:38;9.73;;;3.92;;
71973;SDS011;59840;52.122;5.404;2023-10-09T12:23:05;5.80;;;2.90;;
71973;SDS011;59840;52.122;5.404;2023-10-09T12:25:33;7.18;;;2.80;;
71973;SDS011;59840;52.122;5.404;2023-10-09T12:28:02;6.43;;;2.70;;
71973;SDS011;59840;52.122;5.404;2023-10-09T12:30:29;10.15;;;3.25;;
71973;SDS011;59840;52.122;5.404;2023-10-09T12:32:57;8.00;;;2.70;;
71973;SDS011;59840;52.122;5.404;2023-10-09T12:35:24;6.30;;;2.65;;
71973;SDS011;59840;52.122;5.404;2023-10-09T12:37:52;6.63;;;3.17;;
71973;SDS011;59840;52.122;5.404;2023-10-09T12:40:21;7.00;;;3.20;;
71973;SDS011;59840;52.122;5.404;2023-10-09T12:42:55;5.57;;;3.08;;
71973;SDS011;59840;52.122;5.404;2023-10-09T12:45:25;7.07;;;3.42;;
71973;SDS011;59840;52.122;5.404;2023-10-09T12:47:53;6.68;;;2.85;;
71973;SDS011;59840;52.122;5.404;2023-10-09T12:50:25;5.63;;;3.10;;
71973;SDS011;59840;52.122;5.404;2023-10-09T12:52:57;5.33;;;2.67;;
71973;SDS011;59840;52.122;5.404;2023-10-09T12:55:39;5.63;;;3.20;;
71973;SDS011;59840;52.122;5.404;2023-10-09T12:58:10;8.15;;;2.60;;
71973;SDS011;59840;52.122;5.404;2023-10-09T13:00:42;6.30;;;3.10;;
71973;SDS011;59840;52.122;5.404;2023-10-09T13:03:16;5.82;;;3.17;;
71973;SDS011;59840;52.122;5.404;2023-10-09T13:05:47;5.30;;;2.87;;
71973;SDS011;59840;52.122;5.404;2023-10-09T13:08:25;6.00;;;2.80;;
71973;SDS011;59840;52.122;5.404;2023-10-09T13:11:01;6.43;;;2.85;;
71973;SDS011;59840;52.122;5.404;2023-10-09T13:13:38;7.55;;;3.22;;
71973;SDS011;59840;52.122;5.404;2023-10-09T13:16:18;6.95;;;3.40;;
71973;SDS011;59840;52.122;5.404;2023-10-09T13:18:53;6.00;;;2.60;;
71973;SDS011;59840;52.122;5.404;2023-10-09T13:21:21;5.72;;;3.63;;
71973;SDS011;59840;52.122;5.404;2023-10-09T13:23:50;7.18;;;3.17;;
71973;SDS011;59840;52.122;5.404;2023-10-09T13:26:17;8.48;;;3.33;;
71973;SDS011;59840;52.122;5.404;2023-10-09T13:28:51;5.85;;;3.03;;
71973;SDS011;59840;52.122;5.404;2023-10-09T13:31:19;5.33;;;2.90;;
71973;SDS011;59840;52.122;5.404;2023-10-09T13:33:47;8.68;;;3.15;;
71973;SDS011;59840;52.122;5.404;2023-10-09T13:36:15;8.02;;;3.55;;
71973;SDS011;59840;52.122;5.404;2023-10-09T13:38:54;13.52;;;3.22;;
71973;SDS011;59840;52.122;5.404;2023-10-09T13:41:21;7.57;;;2.88;;
71973;SDS011;59840;52.122;5.404;2023-10-09T13:43:52;8.13;;;3.20;;
71973;SDS011;59840;52.122;5.404;2023-10-09T13:46:18;7.70;;;3.15;;
71973;SDS011;59840;52.122;5.404;2023-10-09T13:48:46;5.00;;;3.35;;
71973;SDS011;59840;52.122;5.404;2023-10-09T13:51:15;4.55;;;2.92;;
71973;SDS011;59840;52.122;5.404;2023-10-09T13:53:45;6.00;;;3.25;;
71973;SDS011;59840;52.122;5.404;2023-10-09T13:56:17;9.10;;;2.60;;
71973;SDS011;59840;52.122;5.404;2023-10-09T13:58:46;8.05;;;3.10;;
71973;SDS011;59840;52.122;5.404;2023-10-09T14:01:13;7.35;;;2.80;;
71973;SDS011;59840;52.122;5.404;2023-10-09T14:03:56;8.05;;;2.95;;
71973;SDS011;59840;52.122;5.404;2023-10-09T14:06:26;8.93;;;3.58;;
71973;SDS011;59840;52.122;5.404;2023-10-09T14:08:57;7.23;;;3.13;;
71973;SDS011;59840;52.122;5.404;2023-10-09T14:11:31;6.43;;;2.67;;
71973;SDS011;59840;52.122;5.404;2023-10-09T14:13:58;7.38;;;3.10;;
71973;SDS011;59840;52.122;5.404;2023-10-09T14:16:37;8.85;;;3.40;;
71973;SDS011;59840;52.122;5.404;2023-10-09T14:19:09;8.27;;;3.08;;
71973;SDS011;59840;52.122;5.404;2023-10-09T14:21:39;7.07;;;3.10;;
71973;SDS011;59840;52.122;5.404;2023-10-09T14:24:07;9.07;;;3.03;;
71973;SDS011;59840;52.122;5.404;2023-10-09T14:26:45;8.60;;;3.17;;
71973;SDS011;59840;52.122;5.404;2023-10-09T14:29:13;8.82;;;3.13;;
71973;SDS011;59840;52.122;5.404;2023-10-09T14:31:43;8.55;;;2.92;;
71973;SDS011;59840;52.122;5.404;2023-10-09T14:34:15;9.37;;;3.47;;
71973;SDS011;59840;52.122;5.404;2023-10-09T14:36:42;9.00;;;2.75;;
71973;SDS011;59840;52.122;5.404;2023-10-09T14:39:10;9.80;;;3.05;;
71973;SDS011;59840;52.122;5.404;2023-10-09T14:41:45;6.13;;;3.55;;
71973;SDS011;59840;52.122;5.404;2023-10-09T14:44:11;6.70;;;3.63;;
71973;SDS011;59840;52.122;5.404;2023-10-09T14:46:43;7.83;;;2.80;;
71973;SDS011;59840;52.122;5.404;2023-10-09T14:49:09;8.93;;;3.85;;
71973;SDS011;59840;52.122;5.404;2023-10-09T14:51:40;6.43;;;3.28;;
71973;SDS011;59840;52.122;5.404;2023-10-09T14:54:10;9.70;;;3.90;;
71973;SDS011;59840;52.122;5.404;2023-10-09T14:56:41;8.15;;;3.55;;
71973;SDS011;59840;52.122;5.404;2023-10-09T14:59:08;11.00;;;4.10;;
71973;SDS011;59840;52.122;5.404;2023-10-09T15:01:37;7.20;;;3.80;;
71973;SDS011;59840;52.122;5.404;2023-10-09T15:04:04;6.85;;;3.38;;
71973;SDS011;59840;52.122;5.404;2023-10-09T15:06:31;6.88;;;3.75;;
71973;SDS011;59840;52.122;5.404;2023-10-09T15:08:57;8.40;;;3.50;;
71973;SDS011;59840;52.122;5.404;2023-10-09T15:11:35;7.37;;;3.97;;
71973;SDS011;59840;52.122;5.404;2023-10-09T15:14:05;8.02;;;4.00;;
71973;SDS011;59840;52.122;5.404;2023-10-09T15:16:32;5.20;;;3.53;;
71973;SDS011;59840;52.122;5.404;2023-10-09T15:18:59;6.18;;;3.47;;
71973;SDS011;59840;52.122;5.404;2023-10-09T15:21:28;4.50;;;3.42;;
71973;SDS011;59840;52.122;5.404;2023-10-09T15:23:58;8.80;;;3.43;;
71973;SDS011;59840;52.122;5.404;2023-10-09T15:26:25;10.30;;;3.85;;
71973;SDS011;59840;52.122;5.404;2023-10-09T15:29:01;5.95;;;3.53;;
71973;SDS011;59840;52.122;5.404;2023-10-09T15:31:33;4.78;;;3.33;;
71973;SDS011;59840;52.122;5.404;2023-10-09T15:34:00;7.65;;;3.60;;
71973;SDS011;59840;52.122;5.404;2023-10-09T15:36:28;7.60;;;3.43;;
71973;SDS011;59840;52.122;5.404;2023-10-09T15:38:57;14.30;;;3.65;;
71973;SDS011;59840;52.122;5.404;2023-10-09T15:41:26;8.73;;;3.70;;
71973;SDS011;59840;52.122;5.404;2023-10-09T15:43:56;8.10;;;3.50;;
71973;SDS011;59840;52.122;5.404;2023-10-09T15:46:27;7.63;;;4.20;;
71973;SDS011;59840;52.122;5.404;2023-10-09T15:49:00;11.07;;;3.47;;
71973;SDS011;59840;52.122;5.404;2023-10-09T15:51:30;11.02;;;3.92;;
71973;SDS011;59840;52.122;5.404;2023-10-09T15:53:57;8.88;;;3.60;;